Coventry, United Kingdom

11:01 AM GMT on February 07, 2016 (GMT +0000)
Coventry | | Change Station
CLOSE
Current Station
Airport
Location: Coventry,
Elevation: 269 ft
Nearby Weather Stations

Elev 269 ft 52.37 °N, 1.48 °W | Updated 11 minutes ago

Scattered Clouds
Scattered Clouds
45 °F
Feels Like 37 °F
N
17
Wind Variable Wind from SW

Today
High -- | Low -- °F
--% Chance of Precip.
Yesterday
High -- | Low -- °F
Precip. -- in
Pressure 29.24 in
Visibility 6.2 miles
Clouds Scattered Clouds 3500 ft
Windchill 37 °F
Dew Point 41 °F
Humidity 87%
Rainfall 0.00 in
Snow Depth Not available.
7:38 AM 5:02 PM
Waning Crescent, 2% visible
METAR EGBE 071050Z 22015KT 9999 SCT035 07/05 Q0990
Pressure 29.24 in
Visibility 6.2 miles
Clouds Scattered Clouds 3500 ft
Windchill 37 °F
Dew Point 41 °F
Humidity 87%
Rainfall 0.00 in
Snow Depth Not available.
7:38 AM 5:02 PM
Waning Crescent, 2% visible
METAR EGBE 071050Z 22015KT 9999 SCT035 07/05 Q0990

10-Day Weather Forecast

Almanac

Astronomy

Feb. 07, 2016 Rise Set
Actual Time
Civil Twilight
Nautical Twilight
Astronomical Twilight
Moon
Length of Visible Light
Length of Day
Tomorrow will be .
, % of the Moon is Illuminated

Today's Extremes

Country Highs Country Lows

Community

WunderPhotos

Upload Photos

1,891,170 photos uploaded!

WunderBlog® & News

Nearby

Air Quality

  Air Quality AQ Index Pollutant
Not available.

Snow Depth

Station Depth Elevation

Earthquake Activity

City Distance Mag. Time & Date
Minimum magnitude displayed is 2.5.

Coastal Water Temperatures

Place Temperature

Stations

Nearby Weather Stations

Station Location Temp. Windchill Dew Point Humidity Wind Precip. Elev Updated Type